sensor_id;sensor_type;location;lat;lon;timestamp;P1;durP1;ratioP1;P2;durP2;ratioP2
73100;SDS011;61288;53.446;-2.266;2023-03-14T00:00:16;1.50;;;0.90;;
73100;SDS011;61288;53.446;-2.266;2023-03-14T00:02:42;1.75;;;0.85;;
73100;SDS011;61288;53.446;-2.266;2023-03-14T00:05:08;2.47;;;0.90;;
73100;SDS011;61288;53.446;-2.266;2023-03-14T00:07:34;1.27;;;0.80;;
73100;SDS011;61288;53.446;-2.266;2023-03-14T00:10:05;2.40;;;0.90;;
73100;SDS011;61288;53.446;-2.266;2023-03-14T00:12:37;1.45;;;0.88;;
73100;SDS011;61288;53.446;-2.266;2023-03-14T00:15:02;2.25;;;1.00;;
73100;SDS011;61288;53.446;-2.266;2023-03-14T00:17:29;1.60;;;0.80;;
73100;SDS011;61288;53.446;-2.266;2023-03-14T00:19:56;3.17;;;1.15;;
73100;SDS011;61288;53.446;-2.266;2023-03-14T00:22:21;2.97;;;1.08;;
73100;SDS011;61288;53.446;-2.266;2023-03-14T00:24:47;0.93;;;0.82;;
73100;SDS011;61288;53.446;-2.266;2023-03-14T00:27:12;2.70;;;1.00;;
73100;SDS011;61288;53.446;-2.266;2023-03-14T00:29:38;1.92;;;0.90;;
73100;SDS011;61288;53.446;-2.266;2023-03-14T00:32:04;1.67;;;1.00;;
73100;SDS011;61288;53.446;-2.266;2023-03-14T00:34:30;3.17;;;1.33;;
73100;SDS011;61288;53.446;-2.266;2023-03-14T00:36:56;1.77;;;1.00;;
73100;SDS011;61288;53.446;-2.266;2023-03-14T00:39:22;1.00;;;0.90;;
73100;SDS011;61288;53.446;-2.266;2023-03-14T00:41:47;2.70;;;1.15;;
73100;SDS011;61288;53.446;-2.266;2023-03-14T00:44:13;3.90;;;1.15;;
73100;SDS011;61288;53.446;-2.266;2023-03-14T00:46:38;3.25;;;1.13;;
73100;SDS011;61288;53.446;-2.266;2023-03-14T00:49:04;1.02;;;0.82;;
73100;SDS011;61288;53.446;-2.266;2023-03-14T00:51:29;0.80;;;0.80;;
73100;SDS011;61288;53.446;-2.266;2023-03-14T00:53:55;3.50;;;0.70;;
73100;SDS011;61288;53.446;-2.266;2023-03-14T00:56:20;2.42;;;1.05;;
73100;SDS011;61288;53.446;-2.266;2023-03-14T00:58:47;1.20;;;0.80;;
73100;SDS011;61288;53.446;-2.266;2023-03-14T01:01:14;1.00;;;0.80;;
73100;SDS011;61288;53.446;-2.266;2023-03-14T01:03:42;4.05;;;1.05;;
73100;SDS011;61288;53.446;-2.266;2023-03-14T01:06:15;2.85;;;0.93;;
73100;SDS011;61288;53.446;-2.266;2023-03-14T01:08:42;1.55;;;1.00;;
73100;SDS011;61288;53.446;-2.266;2023-03-14T01:11:09;1.15;;;0.80;;
73100;SDS011;61288;53.446;-2.266;2023-03-14T01:13:37;1.48;;;0.73;;
73100;SDS011;61288;53.446;-2.266;2023-03-14T01:16:03;1.50;;;0.73;;
73100;SDS011;61288;53.446;-2.266;2023-03-14T01:18:31;1.58;;;0.65;;
73100;SDS011;61288;53.446;-2.266;2023-03-14T01:20:57;0.80;;;0.80;;
73100;SDS011;61288;53.446;-2.266;2023-03-14T01:23:23;1.75;;;0.45;;
73100;SDS011;61288;53.446;-2.266;2023-03-14T01:25:49;2.35;;;0.75;;
73100;SDS011;61288;53.446;-2.266;2023-03-14T01:28:14;1.08;;;0.70;;
73100;SDS011;61288;53.446;-2.266;2023-03-14T01:30:41;1.65;;;0.90;;
73100;SDS011;61288;53.446;-2.266;2023-03-14T01:33:06;1.38;;;0.70;;
73100;SDS011;61288;53.446;-2.266;2023-03-14T01:35:32;1.38;;;0.73;;
73100;SDS011;61288;53.446;-2.266;2023-03-14T01:37:57;1.00;;;0.60;;
73100;SDS011;61288;53.446;-2.266;2023-03-14T01:40:23;0.90;;;0.82;;
73100;SDS011;61288;53.446;-2.266;2023-03-14T01:42:57;1.27;;;0.60;;
73100;SDS011;61288;53.446;-2.266;2023-03-14T01:57:42;3.35;;;0.75;;
73100;SDS011;61288;53.446;-2.266;2023-03-14T01:59:54;2.40;;;0.90;;
73100;SDS011;61288;53.446;-2.266;2023-03-14T02:02:23;1.85;;;0.77;;
73100;SDS011;61288;53.446;-2.266;2023-03-14T02:04:51;4.32;;;0.90;;
73100;SDS011;61288;53.446;-2.266;2023-03-14T02:07:35;3.35;;;1.00;;
73100;SDS011;61288;53.446;-2.266;2023-03-14T02:10:07;4.28;;;1.00;;
73100;SDS011;61288;53.446;-2.266;2023-03-14T02:12:36;5.50;;;1.23;;
73100;SDS011;61288;53.446;-2.266;2023-03-14T02:15:02;5.93;;;1.00;;
73100;SDS011;61288;53.446;-2.266;2023-03-14T02:17:30;2.58;;;0.70;;
73100;SDS011;61288;53.446;-2.266;2023-03-14T02:22:59;1.80;;;0.77;;
73100;SDS011;61288;53.446;-2.266;2023-03-14T02:25:28;1.45;;;0.70;;
73100;SDS011;61288;53.446;-2.266;2023-03-14T02:28:07;2.05;;;0.90;;
73100;SDS011;61288;53.446;-2.266;2023-03-14T02:30:37;4.22;;;1.00;;
73100;SDS011;61288;53.446;-2.266;2023-03-14T02:33:05;2.97;;;0.90;;
73100;SDS011;61288;53.446;-2.266;2023-03-14T02:35:40;1.60;;;0.90;;
73100;SDS011;61288;53.446;-2.266;2023-03-14T02:38:15;2.63;;;1.00;;
73100;SDS011;61288;53.446;-2.266;2023-03-14T02:40:48;3.47;;;1.00;;
73100;SDS011;61288;53.446;-2.266;2023-03-14T02:43:16;3.45;;;0.98;;
73100;SDS011;61288;53.446;-2.266;2023-03-14T02:45:43;3.17;;;1.13;;
73100;SDS011;61288;53.446;-2.266;2023-03-14T02:48:20;2.47;;;0.90;;
73100;SDS011;61288;53.446;-2.266;2023-03-14T02:50:50;3.67;;;1.10;;
73100;SDS011;61288;53.446;-2.266;2023-03-14T02:53:18;3.58;;;1.20;;
73100;SDS011;61288;53.446;-2.266;2023-03-14T02:55:47;5.32;;;1.15;;
73100;SDS011;61288;53.446;-2.266;2023-03-14T02:58:13;3.20;;;0.98;;
73100;SDS011;61288;53.446;-2.266;2023-03-14T03:00:39;3.78;;;1.23;;
73100;SDS011;61288;53.446;-2.266;2023-03-14T03:03:04;4.22;;;1.23;;
73100;SDS011;61288;53.446;-2.266;2023-03-14T03:05:33;3.97;;;1.23;;
73100;SDS011;61288;53.446;-2.266;2023-03-14T03:07:58;2.53;;;1.10;;
73100;SDS011;61288;53.446;-2.266;2023-03-14T03:10:24;3.55;;;1.45;;
73100;SDS011;61288;53.446;-2.266;2023-03-14T03:12:50;2.08;;;1.30;;
73100;SDS011;61288;53.446;-2.266;2023-03-14T03:15:16;3.58;;;1.35;;
73100;SDS011;61288;53.446;-2.266;2023-03-14T03:17:42;3.17;;;1.20;;
73100;SDS011;61288;53.446;-2.266;2023-03-14T03:20:08;3.60;;;1.30;;
73100;SDS011;61288;53.446;-2.266;2023-03-14T03:22:34;4.43;;;1.30;;
73100;SDS011;61288;53.446;-2.266;2023-03-14T03:25:04;5.78;;;1.40;;
73100;SDS011;61288;53.446;-2.266;2023-03-14T03:27:31;1.30;;;0.80;;
73100;SDS011;61288;53.446;-2.266;2023-03-14T03:30:01;1.70;;;0.77;;
73100;SDS011;61288;53.446;-2.266;2023-03-14T03:32:29;2.65;;;1.00;;
73100;SDS011;61288;53.446;-2.266;2023-03-14T03:34:54;5.05;;;1.05;;
73100;SDS011;61288;53.446;-2.266;2023-03-14T03:37:20;3.10;;;0.93;;
73100;SDS011;61288;53.446;-2.266;2023-03-14T03:39:51;3.88;;;0.90;;
73100;SDS011;61288;53.446;-2.266;2023-03-14T03:42:19;1.25;;;0.90;;
73100;SDS011;61288;53.446;-2.266;2023-03-14T03:44:45;2.40;;;1.02;;
73100;SDS011;61288;53.446;-2.266;2023-03-14T03:47:13;3.42;;;1.20;;
73100;SDS011;61288;53.446;-2.266;2023-03-14T03:49:39;5.35;;;1.10;;
73100;SDS011;61288;53.446;-2.266;2023-03-14T03:52:07;5.45;;;1.40;;
73100;SDS011;61288;53.446;-2.266;2023-03-14T03:54:34;3.55;;;1.10;;
73100;SDS011;61288;53.446;-2.266;2023-03-14T03:57:01;2.33;;;1.20;;
73100;SDS011;61288;53.446;-2.266;2023-03-14T03:59:26;3.95;;;1.00;;
73100;SDS011;61288;53.446;-2.266;2023-03-14T04:01:52;4.10;;;0.98;;
73100;SDS011;61288;53.446;-2.266;2023-03-14T04:04:17;4.80;;;1.10;;
73100;SDS011;61288;53.446;-2.266;2023-03-14T04:06:43;4.53;;;0.93;;
73100;SDS011;61288;53.446;-2.266;2023-03-14T04:09:09;1.85;;;0.90;;
73100;SDS011;61288;53.446;-2.266;2023-03-14T04:11:35;6.32;;;1.10;;
73100;SDS011;61288;53.446;-2.266;2023-03-14T04:14:02;4.90;;;1.20;;
73100;SDS011;61288;53.446;-2.266;2023-03-14T04:16:28;5.55;;;1.30;;
73100;SDS011;61288;53.446;-2.266;2023-03-14T04:18:56;4.95;;;1.00;;
73100;SDS011;61288;53.446;-2.266;2023-03-14T04:21:22;3.95;;;1.10;;
73100;SDS011;61288;53.446;-2.266;2023-03-14T04:23:47;6.85;;;1.25;;
73100;SDS011;61288;53.446;-2.266;2023-03-14T04:26:14;5.47;;;1.23;;
73100;SDS011;61288;53.446;-2.266;2023-03-14T04:28:39;4.57;;;1.40;;
73100;SDS011;61288;53.446;-2.266;2023-03-14T04:31:09;11.32;;;1.98;;
73100;SDS011;61288;53.446;-2.266;2023-03-14T04:33:36;8.38;;;1.40;;
73100;SDS011;61288;53.446;-2.266;2023-03-14T04:36:02;14.02;;;1.73;;
73100;SDS011;61288;53.446;-2.266;2023-03-14T04:38:29;8.77;;;1.80;;
73100;SDS011;61288;53.446;-2.266;2023-03-14T04:40:55;9.13;;;1.50;;
73100;SDS011;61288;53.446;-2.266;2023-03-14T04:43:20;10.05;;;2.00;;
73100;SDS011;61288;53.446;-2.266;2023-03-14T04:45:46;6.78;;;1.83;;
73100;SDS011;61288;53.446;-2.266;2023-03-14T04:48:13;11.23;;;1.65;;
73100;SDS011;61288;53.446;-2.266;2023-03-14T04:50:38;8.65;;;2.42;;
73100;SDS011;61288;53.446;-2.266;2023-03-14T04:53:04;9.70;;;1.80;;
73100;SDS011;61288;53.446;-2.266;2023-03-14T04:55:30;5.30;;;1.10;;
73100;SDS011;61288;53.446;-2.266;2023-03-14T04:57:57;10.20;;;1.80;;
73100;SDS011;61288;53.446;-2.266;2023-03-14T05:00:23;12.18;;;1.70;;
73100;SDS011;61288;53.446;-2.266;2023-03-14T05:02:49;10.50;;;1.60;;
73100;SDS011;61288;53.446;-2.266;2023-03-14T05:05:14;10.27;;;1.40;;
73100;SDS011;61288;53.446;-2.266;2023-03-14T05:07:40;9.73;;;1.60;;
73100;SDS011;61288;53.446;-2.266;2023-03-14T05:10:05;11.05;;;1.40;;
73100;SDS011;61288;53.446;-2.266;2023-03-14T05:12:31;9.70;;;1.65;;
73100;SDS011;61288;53.446;-2.266;2023-03-14T05:14:56;12.32;;;1.63;;
73100;SDS011;61288;53.446;-2.266;2023-03-14T05:17:22;10.85;;;1.90;;
73100;SDS011;61288;53.446;-2.266;2023-03-14T05:19:47;8.90;;;1.45;;
73100;SDS011;61288;53.446;-2.266;2023-03-14T05:22:13;9.18;;;1.42;;
73100;SDS011;61288;53.446;-2.266;2023-03-14T05:24:38;13.13;;;1.80;;
73100;SDS011;61288;53.446;-2.266;2023-03-14T05:27:04;11.45;;;1.35;;
73100;SDS011;61288;53.446;-2.266;2023-03-14T05:29:29;12.23;;;1.80;;
73100;SDS011;61288;53.446;-2.266;2023-03-14T05:34:51;14.50;;;2.15;;
73100;SDS011;61288;53.446;-2.266;2023-03-14T05:37:17;6.90;;;1.70;;
73100;SDS011;61288;53.446;-2.266;2023-03-14T05:39:42;7.22;;;1.42;;
73100;SDS011;61288;53.446;-2.266;2023-03-14T05:42:07;9.10;;;1.40;;
73100;SDS011;61288;53.446;-2.266;2023-03-14T05:44:33;17.92;;;1.95;;
73100;SDS011;61288;53.446;-2.266;2023-03-14T05:46:59;6.88;;;1.65;;
73100;SDS011;61288;53.446;-2.266;2023-03-14T05:49:24;14.23;;;1.70;;
73100;SDS011;61288;53.446;-2.266;2023-03-14T05:51:50;7.95;;;1.25;;
73100;SDS011;61288;53.446;-2.266;2023-03-14T05:54:16;8.13;;;1.38;;
73100;SDS011;61288;53.446;-2.266;2023-03-14T05:56:41;15.82;;;2.13;;
73100;SDS011;61288;53.446;-2.266;2023-03-14T05:59:07;8.30;;;1.40;;
73100;SDS011;61288;53.446;-2.266;2023-03-14T06:01:34;8.75;;;1.58;;
73100;SDS011;61288;53.446;-2.266;2023-03-14T06:03:59;8.90;;;1.30;;
73100;SDS011;61288;53.446;-2.266;2023-03-14T06:06:25;5.28;;;1.60;;
73100;SDS011;61288;53.446;-2.266;2023-03-14T06:08:50;12.50;;;1.70;;
73100;SDS011;61288;53.446;-2.266;2023-03-14T06:11:16;6.40;;;1.90;;
73100;SDS011;61288;53.446;-2.266;2023-03-14T06:13:41;7.10;;;1.50;;
73100;SDS011;61288;53.446;-2.266;2023-03-14T06:16:07;10.23;;;1.63;;
73100;SDS011;61288;53.446;-2.266;2023-03-14T06:18:33;6.30;;;1.58;;
73100;SDS011;61288;53.446;-2.266;2023-03-14T06:20:58;14.55;;;2.10;;
73100;SDS011;61288;53.446;-2.266;2023-03-14T06:23:24;8.88;;;1.95;;
73100;SDS011;61288;53.446;-2.266;2023-03-14T06:25:50;8.15;;;1.48;;
73100;SDS011;61288;53.446;-2.266;2023-03-14T06:28:16;7.07;;;1.70;;
73100;SDS011;61288;53.446;-2.266;2023-03-14T06:30:42;10.18;;;1.48;;
73100;SDS011;61288;53.446;-2.266;2023-03-14T06:33:07;10.32;;;2.05;;
73100;SDS011;61288;53.446;-2.266;2023-03-14T06:35:32;7.30;;;1.50;;
73100;SDS011;61288;53.446;-2.266;2023-03-14T06:37:58;8.32;;;1.65;;
73100;SDS011;61288;53.446;-2.266;2023-03-14T06:40:23;8.10;;;1.70;;
73100;SDS011;61288;53.446;-2.266;2023-03-14T06:42:49;13.68;;;1.88;;
73100;SDS011;61288;53.446;-2.266;2023-03-14T06:45:14;9.68;;;2.30;;
73100;SDS011;61288;53.446;-2.266;2023-03-14T06:47:40;8.25;;;1.85;;
73100;SDS011;61288;53.446;-2.266;2023-03-14T06:50:06;10.55;;;2.10;;
73100;SDS011;61288;53.446;-2.266;2023-03-14T06:52:33;6.57;;;1.42;;
73100;SDS011;61288;53.446;-2.266;2023-03-14T06:54:58;12.52;;;2.33;;
73100;SDS011;61288;53.446;-2.266;2023-03-14T06:57:24;7.65;;;1.52;;
73100;SDS011;61288;53.446;-2.266;2023-03-14T06:59:51;6.32;;;1.60;;
73100;SDS011;61288;53.446;-2.266;2023-03-14T07:02:16;9.38;;;2.00;;
73100;SDS011;61288;53.446;-2.266;2023-03-14T07:04:42;11.73;;;2.13;;
73100;SDS011;61288;53.446;-2.266;2023-03-14T07:07:08;10.90;;;2.22;;
73100;SDS011;61288;53.446;-2.266;2023-03-14T07:09:34;4.47;;;1.50;;
73100;SDS011;61288;53.446;-2.266;2023-03-14T07:12:00;7.30;;;2.10;;
73100;SDS011;61288;53.446;-2.266;2023-03-14T07:14:26;7.95;;;2.28;;
73100;SDS011;61288;53.446;-2.266;2023-03-14T07:16:51;9.90;;;1.92;;
73100;SDS011;61288;53.446;-2.266;2023-03-14T07:19:17;8.32;;;1.70;;
73100;SDS011;61288;53.446;-2.266;2023-03-14T07:21:43;12.30;;;2.47;;
73100;SDS011;61288;53.446;-2.266;2023-03-14T07:24:08;13.63;;;2.10;;
73100;SDS011;61288;53.446;-2.266;2023-03-14T07:26:34;13.55;;;2.45;;
73100;SDS011;61288;53.446;-2.266;2023-03-14T07:29:00;10.38;;;1.95;;
73100;SDS011;61288;53.446;-2.266;2023-03-14T07:31:28;10.18;;;1.90;;
73100;SDS011;61288;53.446;-2.266;2023-03-14T07:33:54;9.13;;;1.90;;
73100;SDS011;61288;53.446;-2.266;2023-03-14T07:36:21;13.30;;;2.38;;
73100;SDS011;61288;53.446;-2.266;2023-03-14T07:38:47;14.02;;;2.00;;
73100;SDS011;61288;53.446;-2.266;2023-03-14T07:41:14;8.55;;;1.92;;
73100;SDS011;61288;53.446;-2.266;2023-03-14T07:43:40;10.40;;;2.03;;
73100;SDS011;61288;53.446;-2.266;2023-03-14T07:46:06;10.25;;;1.88;;
73100;SDS011;61288;53.446;-2.266;2023-03-14T07:48:32;11.77;;;2.20;;
73100;SDS011;61288;53.446;-2.266;2023-03-14T07:50:58;11.02;;;2.00;;
73100;SDS011;61288;53.446;-2.266;2023-03-14T07:53:24;12.65;;;2.22;;
73100;SDS011;61288;53.446;-2.266;2023-03-14T07:55:51;10.82;;;2.00;;
73100;SDS011;61288;53.446;-2.266;2023-03-14T07:58:17;9.80;;;2.10;;
73100;SDS011;61288;53.446;-2.266;2023-03-14T08:00:42;13.60;;;1.90;;
73100;SDS011;61288;53.446;-2.266;2023-03-14T08:03:09;7.45;;;1.92;;
73100;SDS011;61288;53.446;-2.266;2023-03-14T08:05:36;10.50;;;2.20;;
73100;SDS011;61288;53.446;-2.266;2023-03-14T08:08:03;10.18;;;1.83;;
73100;SDS011;61288;53.446;-2.266;2023-03-14T08:10:29;14.63;;;2.22;;
73100;SDS011;61288;53.446;-2.266;2023-03-14T08:12:56;8.80;;;1.90;;
73100;SDS011;61288;53.446;-2.266;2023-03-14T08:15:23;12.82;;;2.33;;
73100;SDS011;61288;53.446;-2.266;2023-03-14T08:17:50;8.70;;;2.00;;
73100;SDS011;61288;53.446;-2.266;2023-03-14T08:20:23;13.90;;;2.25;;
73100;SDS011;61288;53.446;-2.266;2023-03-14T08:22:51;11.00;;;2.20;;
73100;SDS011;61288;53.446;-2.266;2023-03-14T08:25:20;12.00;;;2.00;;
73100;SDS011;61288;53.446;-2.266;2023-03-14T08:27:45;7.78;;;2.00;;
73100;SDS011;61288;53.446;-2.266;2023-03-14T08:30:11;9.75;;;2.08;;
73100;SDS011;61288;53.446;-2.266;2023-03-14T08:32:38;11.38;;;2.08;;
73100;SDS011;61288;53.446;-2.266;2023-03-14T08:35:04;12.27;;;1.73;;
73100;SDS011;61288;53.446;-2.266;2023-03-14T08:37:31;11.60;;;2.00;;
73100;SDS011;61288;53.446;-2.266;2023-03-14T08:39:57;11.93;;;2.13;;
73100;SDS011;61288;53.446;-2.266;2023-03-14T08:42:23;14.70;;;2.40;;
73100;SDS011;61288;53.446;-2.266;2023-03-14T08:44:48;14.00;;;2.40;;
73100;SDS011;61288;53.446;-2.266;2023-03-14T08:47:14;15.30;;;2.47;;
73100;SDS011;61288;53.446;-2.266;2023-03-14T08:49:39;10.95;;;2.15;;
73100;SDS011;61288;53.446;-2.266;2023-03-14T08:52:05;14.25;;;2.20;;
73100;SDS011;61288;53.446;-2.266;2023-03-14T08:54:30;13.52;;;2.05;;
73100;SDS011;61288;53.446;-2.266;2023-03-14T08:56:56;10.07;;;2.10;;
73100;SDS011;61288;53.446;-2.266;2023-03-14T08:59:22;13.43;;;2.40;;
73100;SDS011;61288;53.446;-2.266;2023-03-14T09:01:49;10.95;;;2.13;;
73100;SDS011;61288;53.446;-2.266;2023-03-14T09:04:16;9.75;;;2.00;;
73100;SDS011;61288;53.446;-2.266;2023-03-14T09:06:42;9.88;;;2.13;;
73100;SDS011;61288;53.446;-2.266;2023-03-14T09:09:10;10.23;;;2.03;;
73100;SDS011;61288;53.446;-2.266;2023-03-14T09:11:36;9.35;;;1.63;;
73100;SDS011;61288;53.446;-2.266;2023-03-14T09:14:03;8.75;;;2.17;;
73100;SDS011;61288;53.446;-2.266;2023-03-14T09:16:28;11.13;;;1.88;;
73100;SDS011;61288;53.446;-2.266;2023-03-14T09:18:53;11.73;;;2.10;;
73100;SDS011;61288;53.446;-2.266;2023-03-14T09:21:20;10.88;;;2.08;;
73100;SDS011;61288;53.446;-2.266;2023-03-14T09:23:46;13.65;;;2.03;;
73100;SDS011;61288;53.446;-2.266;2023-03-14T09:26:13;13.52;;;2.05;;
73100;SDS011;61288;53.446;-2.266;2023-03-14T09:28:39;13.15;;;2.20;;
73100;SDS011;61288;53.446;-2.266;2023-03-14T09:31:05;11.73;;;2.50;;
73100;SDS011;61288;53.446;-2.266;2023-03-14T09:33:33;10.82;;;2.10;;
73100;SDS011;61288;53.446;-2.266;2023-03-14T09:36:00;11.93;;;2.10;;
73100;SDS011;61288;53.446;-2.266;2023-03-14T09:38:27;9.50;;;2.00;;
73100;SDS011;61288;53.446;-2.266;2023-03-14T09:40:53;14.75;;;2.00;;
73100;SDS011;61288;53.446;-2.266;2023-03-14T09:43:20;14.02;;;3.50;;
73100;SDS011;61288;53.446;-2.266;2023-03-14T09:45:48;10.85;;;2.70;;
73100;SDS011;61288;53.446;-2.266;2023-03-14T09:48:16;18.17;;;3.88;;
73100;SDS011;61288;53.446;-2.266;2023-03-14T09:50:46;14.63;;;3.20;;
73100;SDS011;61288;53.446;-2.266;2023-03-14T09:53:18;15.68;;;3.13;;
73100;SDS011;61288;53.446;-2.266;2023-03-14T09:55:47;13.18;;;2.50;;
73100;SDS011;61288;53.446;-2.266;2023-03-14T09:58:16;14.32;;;2.72;;
73100;SDS011;61288;53.446;-2.266;2023-03-14T10:00:44;9.02;;;1.83;;
73100;SDS011;61288;53.446;-2.266;2023-03-14T10:05:40;9.13;;;1.80;;
73100;SDS011;61288;53.446;-2.266;2023-03-14T10:08:09;13.18;;;1.90;;
73100;SDS011;61288;53.446;-2.266;2023-03-14T10:10:35;12.52;;;2.35;;
73100;SDS011;61288;53.446;-2.266;2023-03-14T10:13:10;5.60;;;1.58;;
73100;SDS011;61288;53.446;-2.266;2023-03-14T10:15:58;10.13;;;1.67;;
73100;SDS011;61288;53.446;-2.266;2023-03-14T10:18:27;8.10;;;1.90;;
73100;SDS011;61288;53.446;-2.266;2023-03-14T10:24:07;12.70;;;2.40;;
73100;SDS011;61288;53.446;-2.266;2023-03-14T10:26:34;12.35;;;2.17;;
73100;SDS011;61288;53.446;-2.266;2023-03-14T10:29:03;13.43;;;2.05;;
73100;SDS011;61288;53.446;-2.266;2023-03-14T10:34:20;8.30;;;1.58;;
73100;SDS011;61288;53.446;-2.266;2023-03-14T10:36:52;8.48;;;1.92;;
73100;SDS011;61288;53.446;-2.266;2023-03-14T10:44:57;13.90;;;1.85;;
73100;SDS011;61288;53.446;-2.266;2023-03-14T10:47:26;12.27;;;1.73;;
73100;SDS011;61288;53.446;-2.266;2023-03-14T10:49:56;12.25;;;2.65;;
73100;SDS011;61288;53.446;-2.266;2023-03-14T10:52:23;9.57;;;1.60;;
73100;SDS011;61288;53.446;-2.266;2023-03-14T10:54:58;13.82;;;1.80;;
73100;SDS011;61288;53.446;-2.266;2023-03-14T10:57:26;6.70;;;1.50;;
73100;SDS011;61288;53.446;-2.266;2023-03-14T10:59:53;11.98;;;1.83;;
73100;SDS011;61288;53.446;-2.266;2023-03-14T11:04:56;7.88;;;1.20;;
73100;SDS011;61288;53.446;-2.266;2023-03-14T11:07:44;8.07;;;1.50;;
73100;SDS011;61288;53.446;-2.266;2023-03-14T11:10:20;7.45;;;1.40;;
73100;SDS011;61288;53.446;-2.266;2023-03-14T11:26:59;9.00;;;1.70;;
73100;SDS011;61288;53.446;-2.266;2023-03-14T11:32:13;5.18;;;1.20;;
73100;SDS011;61288;53.446;-2.266;2023-03-14T11:34:51;8.70;;;1.65;;
73100;SDS011;61288;53.446;-2.266;2023-03-14T11:42:39;6.68;;;1.27;;
73100;SDS011;61288;53.446;-2.266;2023-03-14T11:45:18;5.03;;;1.50;;
73100;SDS011;61288;53.446;-2.266;2023-03-14T11:48:05;6.22;;;1.52;;
73100;SDS011;61288;53.446;-2.266;2023-03-14T11:50:32;12.30;;;1.40;;
73100;SDS011;61288;53.446;-2.266;2023-03-14T11:53:04;10.50;;;1.67;;
73100;SDS011;61288;53.446;-2.266;2023-03-14T11:55:35;5.13;;;1.42;;
73100;SDS011;61288;53.446;-2.266;2023-03-14T11:58:08;8.82;;;1.80;;
73100;SDS011;61288;53.446;-2.266;2023-03-14T12:00:35;6.20;;;1.40;;
73100;SDS011;61288;53.446;-2.266;2023-03-14T12:11:08;7.45;;;1.80;;
73100;SDS011;61288;53.446;-2.266;2023-03-14T12:13:41;9.07;;;1.52;;
73100;SDS011;61288;53.446;-2.266;2023-03-14T12:18:47;8.48;;;1.63;;
73100;SDS011;61288;53.446;-2.266;2023-03-14T12:21:14;6.28;;;1.70;;
73100;SDS011;61288;53.446;-2.266;2023-03-14T12:28:35;7.28;;;1.58;;
73100;SDS011;61288;53.446;-2.266;2023-03-14T12:32:05;11.65;;;1.67;;
73100;SDS011;61288;53.446;-2.266;2023-03-14T12:34:10;9.32;;;1.75;;
73100;SDS011;61288;53.446;-2.266;2023-03-14T12:37:22;6.13;;;1.25;;
73100;SDS011;61288;53.446;-2.266;2023-03-14T12:43:23;8.70;;;1.50;;
73100;SDS011;61288;53.446;-2.266;2023-03-14T12:48:47;8.60;;;1.58;;
73100;SDS011;61288;53.446;-2.266;2023-03-14T12:51:15;5.78;;;1.35;;
73100;SDS011;61288;53.446;-2.266;2023-03-14T12:59:32;6.43;;;1.30;;
73100;SDS011;61288;53.446;-2.266;2023-03-14T13:04:48;9.13;;;1.90;;
73100;SDS011;61288;53.446;-2.266;2023-03-14T13:07:38;7.15;;;1.38;;
73100;SDS011;61288;53.446;-2.266;2023-03-14T13:15:17;7.32;;;1.55;;
73100;SDS011;61288;53.446;-2.266;2023-03-14T13:17:46;6.22;;;1.50;;
73100;SDS011;61288;53.446;-2.266;2023-03-14T13:20:17;5.68;;;1.40;;
73100;SDS011;61288;53.446;-2.266;2023-03-14T13:22:48;6.93;;;1.65;;
73100;SDS011;61288;53.446;-2.266;2023-03-14T13:25:14;8.23;;;1.35;;
73100;SDS011;61288;53.446;-2.266;2023-03-14T13:27:42;6.72;;;1.30;;
73100;SDS011;61288;53.446;-2.266;2023-03-14T13:30:15;8.10;;;1.90;;
73100;SDS011;61288;53.446;-2.266;2023-03-14T13:33:02;10.60;;;1.80;;
73100;SDS011;61288;53.446;-2.266;2023-03-14T13:35:38;6.88;;;1.92;;
73100;SDS011;61288;53.446;-2.266;2023-03-14T13:38:18;10.70;;;1.67;;
73100;SDS011;61288;53.446;-2.266;2023-03-14T13:40:46;8.13;;;1.40;;
73100;SDS011;61288;53.446;-2.266;2023-03-14T13:43:35;10.88;;;1.42;;
73100;SDS011;61288;53.446;-2.266;2023-03-14T13:46:10;10.48;;;1.40;;
73100;SDS011;61288;53.446;-2.266;2023-03-14T13:48:58;14.48;;;3.17;;
73100;SDS011;61288;53.446;-2.266;2023-03-14T13:51:29;3.58;;;0.80;;
73100;SDS011;61288;53.446;-2.266;2023-03-14T13:53:58;5.97;;;1.10;;
73100;SDS011;61288;53.446;-2.266;2023-03-14T13:56:26;7.13;;;1.50;;
73100;SDS011;61288;53.446;-2.266;2023-03-14T13:58:53;7.35;;;1.52;;
73100;SDS011;61288;53.446;-2.266;2023-03-14T14:03:57;10.20;;;1.63;;
73100;SDS011;61288;53.446;-2.266;2023-03-14T14:09:13;6.75;;;1.52;;
73100;SDS011;61288;53.446;-2.266;2023-03-14T14:14:27;6.93;;;1.40;;
73100;SDS011;61288;53.446;-2.266;2023-03-14T14:16:56;4.68;;;0.95;;
73100;SDS011;61288;53.446;-2.266;2023-03-14T14:19:24;4.97;;;1.20;;
73100;SDS011;61288;53.446;-2.266;2023-03-14T14:21:52;6.03;;;1.00;;
73100;SDS011;61288;53.446;-2.266;2023-03-14T14:24:19;6.00;;;1.05;;
73100;SDS011;61288;53.446;-2.266;2023-03-14T14:26:52;5.50;;;1.20;;
73100;SDS011;61288;53.446;-2.266;2023-03-14T14:34:38;12.80;;;1.65;;
73100;SDS011;61288;53.446;-2.266;2023-03-14T14:37:20;6.82;;;1.33;;
73100;SDS011;61288;53.446;-2.266;2023-03-14T14:39:50;13.32;;;1.50;;
73100;SDS011;61288;53.446;-2.266;2023-03-14T14:42:18;6.07;;;1.45;;
73100;SDS011;61288;53.446;-2.266;2023-03-14T14:44:49;4.43;;;1.30;;
73100;SDS011;61288;53.446;-2.266;2023-03-14T14:47:18;7.47;;;1.80;;
73100;SDS011;61288;53.446;-2.266;2023-03-14T14:49:47;8.07;;;1.73;;
73100;SDS011;61288;53.446;-2.266;2023-03-14T14:54:45;5.75;;;1.60;;
73100;SDS011;61288;53.446;-2.266;2023-03-14T14:57:36;9.65;;;1.70;;
73100;SDS011;61288;53.446;-2.266;2023-03-14T15:00:06;11.77;;;1.88;;
73100;SDS011;61288;53.446;-2.266;2023-03-14T15:02:38;7.65;;;1.90;;
73100;SDS011;61288;53.446;-2.266;2023-03-14T15:05:17;7.15;;;1.77;;
73100;SDS011;61288;53.446;-2.266;2023-03-14T15:07:47;5.70;;;1.60;;
73100;SDS011;61288;53.446;-2.266;2023-03-14T15:10:23;10.77;;;1.90;;
73100;SDS011;61288;53.446;-2.266;2023-03-14T15:12:50;8.02;;;1.63;;
73100;SDS011;61288;53.446;-2.266;2023-03-14T15:15:16;7.45;;;1.88;;
73100;SDS011;61288;53.446;-2.266;2023-03-14T15:17:43;7.35;;;1.52;;
73100;SDS011;61288;53.446;-2.266;2023-03-14T15:20:13;5.50;;;1.17;;
73100;SDS011;61288;53.446;-2.266;2023-03-14T15:22:41;5.57;;;1.55;;
73100;SDS011;61288;53.446;-2.266;2023-03-14T15:25:07;8.32;;;1.90;;
73100;SDS011;61288;53.446;-2.266;2023-03-14T15:27:33;5.55;;;1.30;;
73100;SDS011;61288;53.446;-2.266;2023-03-14T15:29:59;6.63;;;1.50;;
73100;SDS011;61288;53.446;-2.266;2023-03-14T15:32:25;6.47;;;1.40;;
73100;SDS011;61288;53.446;-2.266;2023-03-14T15:34:55;3.88;;;1.30;;
73100;SDS011;61288;53.446;-2.266;2023-03-14T15:37:21;6.65;;;1.70;;
73100;SDS011;61288;53.446;-2.266;2023-03-14T15:39:47;5.68;;;1.65;;
73100;SDS011;61288;53.446;-2.266;2023-03-14T15:42:14;7.40;;;1.60;;
73100;SDS011;61288;53.446;-2.266;2023-03-14T15:44:39;9.07;;;1.90;;
73100;SDS011;61288;53.446;-2.266;2023-03-14T15:47:05;4.45;;;1.70;;
73100;SDS011;61288;53.446;-2.266;2023-03-14T15:49:35;8.07;;;2.10;;
73100;SDS011;61288;53.446;-2.266;2023-03-14T15:52:00;8.77;;;1.88;;
73100;SDS011;61288;53.446;-2.266;2023-03-14T15:54:27;7.72;;;1.83;;
73100;SDS011;61288;53.446;-2.266;2023-03-14T15:56:53;7.45;;;1.70;;
73100;SDS011;61288;53.446;-2.266;2023-03-14T15:59:20;6.75;;;1.73;;
73100;SDS011;61288;53.446;-2.266;2023-03-14T16:01:45;5.20;;;1.40;;
73100;SDS011;61288;53.446;-2.266;2023-03-14T16:04:13;8.05;;;1.60;;
73100;SDS011;61288;53.446;-2.266;2023-03-14T16:06:39;5.85;;;1.35;;
73100;SDS011;61288;53.446;-2.266;2023-03-14T16:09:05;6.55;;;1.60;;
73100;SDS011;61288;53.446;-2.266;2023-03-14T16:11:30;5.75;;;1.80;;
73100;SDS011;61288;53.446;-2.266;2023-03-14T16:13:56;13.75;;;1.92;;
73100;SDS011;61288;53.446;-2.266;2023-03-14T16:16:21;4.13;;;1.23;;
73100;SDS011;61288;53.446;-2.266;2023-03-14T16:18:47;7.65;;;1.35;;
73100;SDS011;61288;53.446;-2.266;2023-03-14T16:21:13;12.70;;;1.80;;
73100;SDS011;61288;53.446;-2.266;2023-03-14T16:23:42;9.57;;;1.40;;